createdAt,value
2023-04-09T00:00:21.656Z,98678.69
2023-04-09T00:02:49.244Z,98675.38
2023-04-09T00:05:16.799Z,98672.97
2023-04-09T00:07:44.712Z,98678.19
2023-04-09T00:10:12.320Z,98681.50
2023-04-09T00:12:39.892Z,98688.28
2023-04-09T00:15:11.078Z,98680.22
2023-04-09T00:17:40.641Z,98689.53
2023-04-09T00:20:08.805Z,98693.31
2023-04-09T00:22:36.437Z,98662.53
2023-04-09T00:25:04.028Z,98681.97
2023-04-09T00:27:31.696Z,98686.22
2023-04-09T00:29:59.274Z,98687.63
2023-04-09T00:32:26.994Z,98684.47
2023-04-09T00:34:54.431Z,98686.50
2023-04-09T00:37:21.887Z,98681.78
2023-04-09T00:39:49.406Z,98694.41
2023-04-09T00:42:16.860Z,98685.88
2023-04-09T00:44:44.931Z,98690.47
2023-04-09T00:47:12.807Z,98686.38
2023-04-09T00:49:40.300Z,98688.41
2023-04-09T00:52:08.218Z,98692.34
2023-04-09T00:54:35.692Z,98680.03
2023-04-09T00:57:03.977Z,98688.72
2023-04-09T00:59:32.054Z,98697.41
2023-04-09T01:01:59.582Z,98692.34
2023-04-09T01:04:27.169Z,98687.63
2023-04-09T01:07:19.085Z,98698.38
2023-04-09T01:10:28.952Z,98693.34
2023-04-09T01:13:03.790Z,98700.88
2023-04-09T01:15:37.369Z,98699.13
2023-04-09T01:18:24.176Z,98705.31
2023-04-09T01:21:14.817Z,98695.88
2023-04-09T01:24:15.778Z,98696.97
2023-04-09T01:27:04.363Z,98709.91
2023-04-09T01:29:54.995Z,98705.94
2023-04-09T01:32:23.434Z,98704.81
2023-04-09T01:34:52.234Z,98708.47
2023-04-09T01:37:20.941Z,98698.53
2023-04-09T01:39:48.718Z,98702.78
2023-04-09T01:42:16.966Z,98708.78
2023-04-09T01:44:47.063Z,98708.00
2023-04-09T01:47:14.769Z,98709.59
2023-04-09T01:49:43.651Z,98706.78
2023-04-09T01:52:12.139Z,98708.19
2023-04-09T01:54:39.718Z,98699.81
2023-04-09T01:57:07.205Z,98711.69
2023-04-09T01:59:34.735Z,98702.03
2023-04-09T02:02:08.849Z,98711.66
2023-04-09T02:04:41.310Z,98711.97
2023-04-09T02:07:36.935Z,98712.94
2023-04-09T02:10:06.796Z,98726.53
2023-04-09T02:12:36.873Z,98706.63
2023-04-09T02:15:07.116Z,98717.97
2023-04-09T02:17:35.230Z,98727.13
2023-04-09T02:20:02.799Z,98720.31
2023-04-09T02:22:30.565Z,98713.41
2023-04-09T02:25:00.087Z,98722.81
2023-04-09T02:27:27.588Z,98723.75
2023-04-09T02:29:54.990Z,98712.22
2023-04-09T02:32:22.629Z,98728.50
2023-04-09T02:34:50.961Z,98728.59
2023-04-09T02:37:18.744Z,98727.94
2023-04-09T02:39:47.893Z,98730.41
2023-04-09T02:42:15.579Z,98727.38
2023-04-09T02:44:44.571Z,98727.06
2023-04-09T02:47:13.932Z,98726.22
2023-04-09T02:49:41.621Z,98730.28
2023-04-09T02:52:13.852Z,98730.34
2023-04-09T02:54:41.732Z,98730.78
2023-04-09T02:57:09.200Z,98731.47
2023-04-09T02:59:39.151Z,98734.00
2023-04-09T03:02:07.099Z,98734.13
2023-04-09T03:04:34.728Z,98743.19
2023-04-09T03:07:02.326Z,98732.66
2023-04-09T03:09:31.147Z,98738.47
2023-04-09T03:12:10.172Z,98744.25
2023-04-09T03:15:31.336Z,98709.06
2023-04-09T03:17:43.984Z,98726.81
2023-04-09T03:20:24.983Z,98721.97
2023-04-09T03:22:59.438Z,98730.97
2023-04-09T03:30:03.139Z,98723.78
2023-04-09T03:32:45.130Z,98730.88
2023-04-09T03:35:14.249Z,98719.31
2023-04-09T03:37:44.169Z,98729.09
2023-04-09T03:40:17.401Z,98727.03
2023-04-09T03:42:45.033Z,98726.41
2023-04-09T03:45:15.460Z,98731.31
2023-04-09T03:47:46.774Z,98728.28
2023-04-09T03:50:14.830Z,98716.63
2023-04-09T03:52:52.622Z,98707.06
2023-04-09T03:55:20.425Z,98710.78
2023-04-09T03:57:49.519Z,98726.66
2023-04-09T04:00:26.281Z,98709.81
2023-04-09T04:03:24.258Z,98706.13
2023-04-09T04:06:07.760Z,98723.06
2023-04-09T04:08:45.827Z,98710.94
2023-04-09T04:11:13.372Z,98718.25
2023-04-09T04:13:41.249Z,98716.84
2023-04-09T04:16:10.766Z,98714.56
2023-04-09T04:18:40.736Z,98705.94
2023-04-09T04:21:13.938Z,98713.16
2023-04-09T04:23:44.831Z,98710.91
2023-04-09T04:26:19.691Z,98708.44
2023-04-09T04:28:47.272Z,98716.59
2023-04-09T04:31:26.295Z,98711.41
2023-04-09T04:33:58.415Z,98707.34
2023-04-09T04:36:26.533Z,98715.53
2023-04-09T04:38:54.359Z,98715.16
2023-04-09T04:41:30.096Z,98719.34
2023-04-09T04:44:08.758Z,98716.22
2023-04-09T04:46:37.069Z,98721.34
2023-04-09T04:49:05.325Z,98705.66
2023-04-09T04:51:37.504Z,98701.06
2023-04-09T04:54:09.662Z,98704.03
2023-04-09T04:56:37.816Z,98709.28
2023-04-09T04:59:14.501Z,98703.34
2023-04-09T05:01:55.988Z,98705.53
2023-04-09T05:04:23.924Z,98702.63
2023-04-09T05:06:51.765Z,98704.53
2023-04-09T05:09:22.634Z,98704.94
2023-04-09T05:11:59.988Z,98699.63
2023-04-09T05:14:27.703Z,98695.34
2023-04-09T05:16:55.338Z,98698.72
2023-04-09T05:19:28.373Z,98701.34
2023-04-09T05:22:00.699Z,98690.41
2023-04-09T05:24:29.570Z,98689.16
2023-04-09T05:26:57.937Z,98691.22
2023-04-09T05:29:26.456Z,98685.13
2023-04-09T05:31:56.260Z,98687.22
2023-04-09T05:34:41.738Z,98682.41
2023-04-09T05:37:11.785Z,98687.56
2023-04-09T05:39:40.124Z,98679.91
2023-04-09T05:42:07.617Z,98676.38
2023-04-09T05:44:56.034Z,98666.44
2023-04-09T05:47:24.801Z,98673.84
2023-04-09T05:50:12.528Z,98677.66
2023-04-09T05:52:40.600Z,98666.91
2023-04-09T05:55:10.132Z,98660.81
2023-04-09T05:57:45.930Z,98670.22
2023-04-09T06:00:13.943Z,98663.81
2023-04-09T06:02:44.760Z,98658.94
2023-04-09T06:05:12.384Z,98661.69
2023-04-09T06:07:40.269Z,98651.19
2023-04-09T06:10:09.003Z,98657.03
2023-04-09T06:12:36.784Z,98655.94
2023-04-09T06:15:05.873Z,98661.41
2023-04-09T06:17:33.789Z,98651.13
2023-04-09T06:20:01.298Z,98655.13
2023-04-09T06:22:30.508Z,98652.69
2023-04-09T06:24:57.991Z,98641.84
2023-04-09T06:27:25.523Z,98646.50
2023-04-09T06:29:53.009Z,98637.13
2023-04-09T06:32:20.544Z,98645.97
2023-04-09T06:34:48.636Z,98636.06
2023-04-09T06:37:16.224Z,98638.41
2023-04-09T06:39:50.667Z,98630.78
2023-04-09T06:42:27.052Z,98626.47
2023-04-09T06:45:17.870Z,98627.81
2023-04-09T06:47:46.695Z,98625.00
2023-04-09T06:50:14.246Z,98627.53
2023-04-09T06:52:42.306Z,98619.88
2023-04-09T06:55:10.158Z,98622.56
2023-04-09T06:57:38.819Z,98613.31
2023-04-09T07:00:07.693Z,98619.75
2023-04-09T07:02:35.499Z,98611.38
2023-04-09T07:05:04.417Z,98614.28
2023-04-09T07:07:32.128Z,98615.59
2023-04-09T07:09:59.846Z,98608.44
2023-04-09T07:12:34.811Z,98607.44
2023-04-09T07:15:04.063Z,98613.41
2023-04-09T07:17:32.495Z,98604.34
2023-04-09T07:20:00.283Z,98589.84
2023-04-09T07:22:30.689Z,98612.19
2023-04-09T07:24:58.413Z,98596.19
2023-04-09T07:27:27.912Z,98610.28
2023-04-09T07:29:57.133Z,98603.97
2023-04-09T07:32:25.798Z,98602.94
2023-04-09T07:34:54.414Z,98593.91
2023-04-09T07:37:21.968Z,98586.09
2023-04-09T07:39:51.522Z,98591.66
2023-04-09T07:42:19.271Z,98583.34
2023-04-09T07:44:48.586Z,98572.47
2023-04-09T07:47:16.355Z,98581.13
2023-04-09T07:49:43.913Z,98572.16
2023-04-09T07:52:11.750Z,98570.41
2023-04-09T07:54:39.285Z,98569.41
2023-04-09T07:57:07.271Z,98560.72
2023-04-09T07:59:35.449Z,98555.25
2023-04-09T08:02:02.982Z,98553.72
2023-04-09T08:04:30.924Z,98551.69
2023-04-09T08:06:58.542Z,98541.94
2023-04-09T08:09:26.336Z,98547.44
2023-04-09T08:11:53.879Z,98552.25
2023-04-09T08:14:21.631Z,98543.22
2023-04-09T08:16:50.811Z,98527.81
2023-04-09T08:19:20.498Z,98543.06
2023-04-09T08:21:49.859Z,98536.56
2023-04-09T08:24:17.612Z,98530.72
2023-04-09T08:26:45.560Z,98529.09
2023-04-09T08:29:14.004Z,98531.19
2023-04-09T08:31:42.699Z,98526.50
2023-04-09T08:34:10.372Z,98519.91
2023-04-09T08:36:37.948Z,98518.19
2023-04-09T08:39:05.531Z,98513.38
2023-04-09T08:41:33.266Z,98519.50
2023-04-09T08:44:01.125Z,98507.69
2023-04-09T08:46:29.045Z,98508.06
2023-04-09T08:48:57.448Z,98490.63
2023-04-09T08:51:25.367Z,98500.66
2023-04-09T08:54:03.650Z,98508.72
2023-04-09T08:56:31.921Z,98501.19
2023-04-09T08:58:59.605Z,98496.16
2023-04-09T09:01:29.800Z,98491.44
2023-04-09T09:04:01.386Z,98492.13
2023-04-09T09:06:33.486Z,98496.47
2023-04-09T09:09:05.733Z,98488.50
2023-04-09T09:11:34.909Z,98481.53
2023-04-09T09:14:12.901Z,98480.91
2023-04-09T09:16:45.289Z,98476.81
2023-04-09T09:19:25.170Z,98473.09
2023-04-09T09:22:02.093Z,98463.31
2023-04-09T09:24:30.002Z,98452.53
2023-04-09T09:26:59.084Z,98467.53
2023-04-09T09:29:27.001Z,98468.94
2023-04-09T09:31:55.930Z,98465.19
2023-04-09T09:34:25.092Z,98465.81
2023-04-09T09:36:52.581Z,98444.69
2023-04-09T09:39:20.463Z,98443.72
2023-04-09T09:41:49.014Z,98449.91
2023-04-09T09:44:34.044Z,98445.91
2023-04-09T09:47:04.381Z,98444.88
2023-04-09T09:49:31.872Z,98436.69
2023-04-09T09:52:03.831Z,98436.03
2023-04-09T09:54:42.716Z,98435.84
2023-04-09T09:57:13.901Z,98422.75
2023-04-09T09:59:48.221Z,98420.31
2023-04-09T10:02:24.909Z,98420.84
2023-04-09T10:04:55.315Z,98408.31
2023-04-09T10:07:24.429Z,98402.53
2023-04-09T10:09:54.685Z,98409.31
2023-04-09T10:12:26.289Z,98396.16
2023-04-09T10:15:00.793Z,98409.00
2023-04-09T10:17:28.441Z,98385.44
2023-04-09T10:20:08.097Z,98402.47
2023-04-09T10:22:36.692Z,98393.00
2023-04-09T10:25:05.215Z,98386.81
2023-04-09T10:27:33.132Z,98380.28
2023-04-09T10:30:02.063Z,98371.66
2023-04-09T10:32:36.437Z,98372.28
2023-04-09T10:35:04.782Z,98362.72
2023-04-09T10:37:32.334Z,98363.81
2023-04-09T10:40:00.180Z,98359.53
2023-04-09T10:42:35.782Z,98362.88
2023-04-09T10:45:11.147Z,98366.13
2023-04-09T10:47:44.180Z,98357.16
2023-04-09T10:50:22.302Z,98357.59
2023-04-09T10:53:00.980Z,98351.41
2023-04-09T10:55:42.164Z,98353.41
2023-04-09T10:58:13.097Z,98352.47
2023-04-09T11:00:49.061Z,98354.38
2023-04-09T11:03:33.105Z,98344.13
2023-04-09T11:06:10.593Z,98346.59
2023-04-09T11:08:39.470Z,98342.03
2023-04-09T11:11:07.085Z,98327.66
2023-04-09T11:13:34.791Z,98322.34
2023-04-09T11:16:07.336Z,98325.03
2023-04-09T11:18:37.399Z,98319.56
2023-04-09T11:21:05.204Z,98322.31
2023-04-09T11:23:33.417Z,98314.16
2023-04-09T11:26:02.396Z,98308.28
2023-04-09T11:28:29.950Z,98303.63
2023-04-09T11:30:57.414Z,98304.00
2023-04-09T11:33:32.947Z,98306.56
2023-04-09T11:36:00.515Z,98300.13
2023-04-09T11:38:28.040Z,98289.06
2023-04-09T11:40:57.980Z,98294.53
2023-04-09T11:43:25.625Z,98293.78
2023-04-09T11:45:53.957Z,98284.47
2023-04-09T11:48:23.976Z,98282.91
2023-04-09T11:50:51.689Z,98283.00
2023-04-09T11:53:20.807Z,98291.19
2023-04-09T11:55:52.613Z,98285.66
2023-04-09T11:58:26.535Z,98292.38
2023-04-09T12:00:59.464Z,98288.47
2023-04-09T12:03:31.554Z,98282.31
2023-04-09T12:06:04.145Z,98267.50
2023-04-09T12:08:35.300Z,98265.16
2023-04-09T12:11:10.838Z,98270.16
2023-04-09T12:13:43.559Z,98261.31
2023-04-09T12:16:15.305Z,98261.56
2023-04-09T12:18:47.914Z,98253.09
2023-04-09T12:21:16.641Z,98247.69
2023-04-09T12:23:45.653Z,98235.72
2023-04-09T12:26:13.536Z,98240.00
2023-04-09T12:28:41.505Z,98233.44
2023-04-09T12:31:12.246Z,98239.66
2023-04-09T12:33:40.680Z,98233.94
2023-04-09T12:36:08.586Z,98231.28
2023-04-09T12:38:36.198Z,98231.63
2023-04-09T12:41:03.789Z,98220.69
2023-04-09T12:43:31.272Z,98223.50
2023-04-09T12:45:58.855Z,98226.22
2023-04-09T12:48:27.053Z,98216.47
2023-04-09T12:50:54.767Z,98213.03
2023-04-09T12:53:22.245Z,98213.44
2023-04-09T12:55:49.736Z,98212.63
2023-04-09T12:58:17.282Z,98213.50
2023-04-09T13:00:44.826Z,98199.09
2023-04-09T13:03:12.871Z,98206.06
2023-04-09T13:05:40.669Z,98195.16
2023-04-09T13:08:08.242Z,98200.25
2023-04-09T13:10:36.714Z,98210.09
2023-04-09T13:13:04.254Z,98188.31
2023-04-09T13:15:31.892Z,98193.78
2023-04-09T13:17:59.473Z,98188.72
2023-04-09T13:20:27.023Z,98180.59
2023-04-09T13:22:54.723Z,98180.69
2023-04-09T13:25:22.500Z,98171.69
2023-04-09T13:27:49.979Z,98172.06
2023-04-09T13:30:17.584Z,98166.22
2023-04-09T13:32:45.111Z,98167.41
2023-04-09T13:35:12.694Z,98165.88
2023-04-09T13:37:40.152Z,98150.72
2023-04-09T13:40:09.454Z,98165.53
2023-04-09T13:42:37.895Z,98152.34
2023-04-09T13:45:06.231Z,98158.97
2023-04-09T13:47:33.848Z,98155.50
2023-04-09T13:50:01.848Z,98146.53
2023-04-09T13:52:30.005Z,98150.84
2023-04-09T13:54:57.689Z,98144.22
2023-04-09T13:57:25.401Z,98149.31
2023-04-09T13:59:53.036Z,98148.94
2023-04-09T14:02:21.079Z,98142.72
2023-04-09T14:04:48.709Z,98143.50
2023-04-09T14:07:16.332Z,98134.19
2023-04-09T14:09:44.313Z,98135.34
2023-04-09T14:12:11.844Z,98139.66
2023-04-09T14:14:39.566Z,98138.88
2023-04-09T14:17:14.124Z,98140.03
2023-04-09T14:19:51.143Z,98133.06
2023-04-09T14:22:19.683Z,98138.13
2023-04-09T14:24:47.169Z,98130.72
2023-04-09T14:27:14.753Z,98132.69
2023-04-09T14:29:42.382Z,98130.38
2023-04-09T14:32:10.063Z,98126.88
2023-04-09T14:34:37.516Z,98137.75
2023-04-09T14:37:05.102Z,98131.94
2023-04-09T14:39:32.521Z,98130.75
2023-04-09T14:42:00.061Z,98117.13
2023-04-09T14:44:27.717Z,98122.22
2023-04-09T14:46:55.405Z,98119.47
2023-04-09T14:49:23.241Z,98122.59
2023-04-09T14:51:50.787Z,98120.66
2023-04-09T14:54:18.644Z,98120.25
2023-04-09T14:56:46.192Z,98113.66
2023-04-09T14:59:14.090Z,98119.84
2023-04-09T15:01:41.683Z,98119.06
2023-04-09T15:04:09.386Z,98123.72
2023-04-09T15:06:37.416Z,98117.13
2023-04-09T15:09:04.893Z,98117.50
2023-04-09T15:11:41.987Z,98128.34
2023-04-09T15:14:12.700Z,98126.78
2023-04-09T15:16:40.293Z,98118.25
2023-04-09T15:19:08.060Z,98122.47
2023-04-09T15:21:35.872Z,98124.00
2023-04-09T15:24:04.011Z,98131.38
2023-04-09T15:26:33.804Z,98126.69
2023-04-09T15:29:05.858Z,98138.72
2023-04-09T15:31:33.824Z,98126.28
2023-04-09T15:34:01.354Z,98131.69
2023-04-09T15:36:30.358Z,98121.91
2023-04-09T15:38:58.028Z,98128.88
2023-04-09T15:41:27.158Z,98127.69
2023-04-09T15:43:54.638Z,98114.50
2023-04-09T15:46:22.234Z,98121.47
2023-04-09T15:48:49.901Z,98117.16
2023-04-09T15:51:17.323Z,98119.47
2023-04-09T15:53:45.013Z,98121.38
2023-04-09T15:56:16.208Z,98127.19
2023-04-09T15:58:43.992Z,98129.84
2023-04-09T16:01:11.917Z,98120.16
2023-04-09T16:03:42.628Z,98122.81
2023-04-09T16:06:13.546Z,98125.16
2023-04-09T16:08:41.204Z,98128.22
2023-04-09T16:11:08.783Z,98122.78
2023-04-09T16:13:36.555Z,98115.34
2023-04-09T16:16:04.559Z,98131.66
2023-04-09T16:18:32.220Z,98120.38
2023-04-09T16:21:00.024Z,98118.41
2023-04-09T16:23:29.942Z,98121.13
2023-04-09T16:25:58.125Z,98107.56
2023-04-09T16:28:26.815Z,98114.13
2023-04-09T16:30:54.397Z,98103.63
2023-04-09T16:33:22.315Z,98105.13
2023-04-09T16:35:50.237Z,98098.13
2023-04-09T16:38:17.785Z,98106.25
2023-04-09T16:40:45.239Z,98107.78
2023-04-09T16:43:12.796Z,98092.63
2023-04-09T16:45:40.310Z,98093.00
2023-04-09T16:48:12.687Z,98097.19
2023-04-09T16:50:40.683Z,98092.91
2023-04-09T16:53:08.581Z,98094.03
2023-04-09T16:55:36.472Z,98080.03
2023-04-09T16:58:03.911Z,98084.25
2023-04-09T17:00:32.056Z,98075.34
2023-04-09T17:02:59.927Z,98079.59
2023-04-09T17:05:27.721Z,98083.03
2023-04-09T17:07:55.632Z,98069.00
2023-04-09T17:10:24.222Z,98068.19
2023-04-09T17:12:52.241Z,98076.31
2023-04-09T17:15:19.840Z,98069.28
2023-04-09T17:17:49.688Z,98077.38
2023-04-09T17:20:17.339Z,98071.53
2023-04-09T17:22:45.066Z,98063.03
2023-04-09T17:25:12.718Z,98072.59
2023-04-09T17:27:40.265Z,98063.97
2023-04-09T17:30:08.195Z,98051.97
2023-04-09T17:32:36.150Z,98059.72
2023-04-09T17:35:04.000Z,98058.13
2023-04-09T17:37:31.814Z,98058.09
2023-04-09T17:40:00.806Z,98053.78
2023-04-09T17:42:29.178Z,98047.91
2023-04-09T17:44:56.780Z,98044.34
2023-04-09T17:47:24.276Z,98043.59
2023-04-09T17:49:52.891Z,98050.59
2023-04-09T17:52:20.812Z,98043.94
2023-04-09T17:54:50.842Z,98048.56
2023-04-09T17:57:18.928Z,98043.47
2023-04-09T17:59:46.458Z,98046.94
2023-04-09T18:02:14.019Z,98039.19
2023-04-09T18:04:42.147Z,98039.16
2023-04-09T18:07:09.736Z,98030.59
2023-04-09T18:09:39.346Z,98024.78
2023-04-09T18:12:07.195Z,98023.53
2023-04-09T18:14:34.775Z,98013.09
2023-04-09T18:17:02.625Z,98016.91
2023-04-09T18:19:30.131Z,98015.34
2023-04-09T18:21:57.582Z,98013.38
2023-04-09T18:24:26.511Z,98011.78
2023-04-09T18:26:54.025Z,98009.78
2023-04-09T18:29:21.588Z,98006.63
2023-04-09T18:31:49.105Z,98001.19
2023-04-09T18:34:17.106Z,98008.88
2023-04-09T18:36:44.567Z,98004.94
2023-04-09T18:39:15.465Z,98002.19
2023-04-09T18:41:43.911Z,98003.69
2023-04-09T18:44:11.434Z,98000.50
2023-04-09T18:46:39.083Z,97997.31
2023-04-09T18:49:06.675Z,97994.56
2023-04-09T18:51:34.299Z,97989.47
2023-04-09T18:54:07.226Z,97998.81
2023-04-09T18:56:34.757Z,97989.00
2023-04-09T18:59:02.286Z,97987.34
2023-04-09T19:01:31.013Z,97990.72
2023-04-09T19:03:58.639Z,97986.72
2023-04-09T19:06:28.139Z,97978.94
2023-04-09T19:08:59.337Z,97981.94
2023-04-09T19:11:27.022Z,97976.84
2023-04-09T19:13:54.840Z,97969.34
2023-04-09T19:16:22.501Z,97969.72
2023-04-09T19:18:50.167Z,97965.41
2023-04-09T19:21:18.806Z,97966.09
2023-04-09T19:23:47.091Z,97952.19
2023-04-09T19:26:14.745Z,97958.38
2023-04-09T19:28:42.213Z,97955.25
2023-04-09T19:31:09.829Z,97959.81
2023-04-09T19:33:37.325Z,97955.19
2023-04-09T19:36:05.100Z,97952.09
2023-04-09T19:38:32.561Z,97942.38
2023-04-09T19:41:00.116Z,97940.75
2023-04-09T19:43:27.767Z,97945.00
2023-04-09T19:45:55.317Z,97941.47
2023-04-09T19:48:22.882Z,97933.38
2023-04-09T19:50:50.453Z,97938.69
2023-04-09T19:53:18.720Z,97930.94
2023-04-09T19:55:46.204Z,97932.47
2023-04-09T19:58:13.705Z,97921.53
2023-04-09T20:00:41.404Z,97927.38
2023-04-09T20:03:09.718Z,97921.06
2023-04-09T20:05:37.338Z,97926.88
2023-04-09T20:08:05.097Z,97915.19
2023-04-09T20:10:32.701Z,97925.19
2023-04-09T20:13:00.074Z,97913.19
2023-04-09T20:15:27.562Z,97910.50
2023-04-09T20:17:55.184Z,97912.00
2023-04-09T20:20:22.863Z,97901.16
2023-04-09T20:22:56.839Z,97909.53
2023-04-09T20:25:25.845Z,97901.03
2023-04-09T20:27:54.607Z,97912.88
2023-04-09T20:30:22.956Z,97900.06
2023-04-09T20:32:50.660Z,97896.56
2023-04-09T20:35:18.111Z,97888.59
2023-04-09T20:37:45.631Z,97892.34
2023-04-09T20:40:13.109Z,97893.34
2023-04-09T20:42:44.245Z,97890.84
2023-04-09T20:45:11.904Z,97882.63
2023-04-09T20:47:39.573Z,97879.44
2023-04-09T20:50:07.576Z,97877.03
2023-04-09T20:52:35.211Z,97869.66
2023-04-09T20:55:02.776Z,97868.16
2023-04-09T20:57:30.530Z,97860.44
2023-04-09T20:59:58.073Z,97858.50
2023-04-09T21:02:26.011Z,97853.84
2023-04-09T21:04:53.607Z,97849.53
2023-04-09T21:07:21.064Z,97851.25
2023-04-09T21:09:48.519Z,97851.59
2023-04-09T21:12:16.093Z,97845.81
2023-04-09T21:14:43.629Z,97839.97
2023-04-09T21:17:11.260Z,97838.44
2023-04-09T21:19:38.881Z,97833.72
2023-04-09T21:22:06.285Z,97826.81
2023-04-09T21:24:35.488Z,97832.56
2023-04-09T21:27:07.032Z,97823.63
2023-04-09T21:29:37.641Z,97826.72
2023-04-09T21:32:05.202Z,97823.19
2023-04-09T21:34:32.897Z,97821.97
2023-04-09T21:37:03.242Z,97826.72
2023-04-09T21:39:30.819Z,97819.22
2023-04-09T21:41:58.515Z,97811.31
2023-04-09T21:44:26.040Z,97814.47
2023-04-09T21:46:53.670Z,97805.94
2023-04-09T21:49:21.150Z,97799.78
2023-04-09T21:51:48.633Z,97805.13
2023-04-09T21:54:16.142Z,97800.84
2023-04-09T21:56:43.620Z,97807.38
2023-04-09T21:59:11.038Z,97798.44
2023-04-09T22:01:38.637Z,97789.09
2023-04-09T22:04:06.191Z,97782.00
2023-04-09T22:06:33.816Z,97785.03
2023-04-09T22:09:02.174Z,97773.63
2023-04-09T22:11:30.057Z,97758.63
2023-04-09T22:13:58.072Z,97770.22
2023-04-09T22:16:26.517Z,97777.16
2023-04-09T22:18:54.953Z,97766.81
2023-04-09T22:21:22.885Z,97757.81
2023-04-09T22:23:50.325Z,97765.25
2023-04-09T22:26:17.836Z,97748.59
2023-04-09T22:28:45.410Z,97752.84
2023-04-09T22:31:12.884Z,97750.94
2023-04-09T22:33:40.753Z,97746.63
2023-04-09T22:36:08.624Z,97752.84
2023-04-09T22:38:36.383Z,97742.09
2023-04-09T22:41:03.953Z,97741.22
2023-04-09T22:43:31.920Z,97739.25
2023-04-09T22:45:59.459Z,97736.13
2023-04-09T22:48:27.437Z,97741.44
2023-04-09T22:50:55.037Z,97730.22
2023-04-09T22:53:22.597Z,97738.75
2023-04-09T22:55:54.698Z,97738.03
2023-04-09T22:58:22.185Z,97731.44
2023-04-09T23:00:50.866Z,97733.78
2023-04-09T23:03:18.747Z,97734.91
2023-04-09T23:05:46.838Z,97723.22
2023-04-09T23:08:14.304Z,97726.00
2023-04-09T23:10:41.841Z,97729.47
2023-04-09T23:13:11.807Z,97730.53
2023-04-09T23:15:39.417Z,97720.91
2023-04-09T23:18:06.950Z,97719.59
2023-04-09T23:20:35.997Z,97717.34
2023-04-09T23:23:03.916Z,97712.31
2023-04-09T23:25:31.551Z,97718.47
2023-04-09T23:27:58.957Z,97705.72
2023-04-09T23:30:26.465Z,97706.44
2023-04-09T23:32:55.617Z,97701.41
2023-04-09T23:35:24.950Z,97704.78
2023-04-09T23:37:52.542Z,97697.84
2023-04-09T23:40:20.184Z,97684.66
2023-04-09T23:42:49.253Z,97693.81
2023-04-09T23:45:16.909Z,97694.06
2023-04-09T23:47:44.424Z,97689.47
2023-04-09T23:50:12.072Z,97693.72
2023-04-09T23:52:39.863Z,97682.47
2023-04-09T23:55:11.001Z,97689.81
2023-04-09T23:57:40.244Z,97690.63
